Weather at Albuquerque Regional Medical Center Heliport

Public forecast

Using degrees Fahrenheit for public forecast. Weather courtesy of forecast.io.

Closest aviation weather report (METAR) to Albuquerque Regional Medical Center Heliport

Closest report is Albuquerque International Sunport, 3.2 nm (6.0 km) SSE.

2024/07/24 05:52 (retrieved 36 minutes ago)

KABQ 240552Z 03007KT 10SM CLR 25/08 A3031 RMK AO2 SLP175 T02500078 10322 20244 51017

Closest aviation forecast (TAF) to Albuquerque Regional Medical Center Heliport

Closest forecast is Albuquerque International Sunport, 3.2 nm (6.0 km) SSE.

2024/07/24 06:33 (retrieved 0 seconds ago)

TAF KABQ 240530Z 2406/2506 VRB06KT P6SM SKC FM241900 23007KT P6SM FEW100 SCT150 FM242300 09020G30KT P6SM VCSH BKN100 OVC150 FM250200 10011KT P6SM BKN100